ビリニュス の空港の天気 - METARとTAF

ビリニュス国際空港 ( EYVI / VNO ) - リトアニア ビリニュス
飛行場実況気象(Metar)
観測時間01/20 04:50 EET (01/20 02:50 UTC)
風向・風速南南西 8m/s
視程10km以上
天気現象
全天を覆う雲 雲底高度 940m
気温-3℃
湿度86%
気圧1014hPa
METAREYVI 200250Z 21016KT 9999 OVC031 M03/M05 Q1014 R19/2///95 NOSIG
過去の天気等 Google飛行場航空写真 Wunderground天気予報

過去48時間のMETAR

飛行場予報(TAF)
発表時間: 1/20 01:01 EET (1/19 23:01 UTC)
予報対象時間: 20日2時 EET ~ 21日2時 EET
風向・風速南西 7m/s 瞬間風速 12m/s
視程9000m
全天の8割程度の雲 雲底高度 300m
20日2時 EET ~ 20日8時 EET に一時的に
天気現象弱い雪
20日10時 EET ~ 20日17時 EET に一時的に
視程1500m
天気現象しゅう雪
全天の8割程度の雲 雲底高度 150m
全天の8割程度の積乱雲 雲底高度 460m
20日17時 EET ~ 20日18時 EET に徐々に
風向・風速西北西 5m/s
TAF EYVI 192301Z 2000/2024 23014G24KT 9000 BKN010
TEMPO 2000/2006 -SN
TEMPO 2008/2015 1500 SHSN BKN005 BKN015CB
BECMG 2015/2016 29010KT